Time;durP1;ratioP1;P1;durP2;ratioP2;P2;SDS_P1;SDS_P2;PMS_P1;PMS_P2;Temp;Humidity;BMP_temperature;BMP_pressure;BME280_temperature;BME280_humidity;BME280_pressure;Samples;Min_cycle;Max_cycle;Signal;HPM_P1;HPM_P2
2024/03/24 08:37:49;;;;;;;7.23;1.10;;;10.20;99.90;;;;;;3297699;23;1127326;-72
2024/03/24 08:40:15;;;;;;;3.87;1.30;;;10.10;99.90;;;;;;4919095;29;20462;-72
2024/03/24 08:42:42;;;;;;;3.60;0.70;;;9.80;99.90;;;;;;4919410;29;20213;-77
2024/03/24 08:45:09;;;;;;;4.63;0.97;;;9.80;99.90;;;;;;4919191;29;20661;-73
2024/03/24 08:47:36;;;;;;;3.60;1.27;;;9.70;99.90;;;;;;4919118;29;20217;-77
2024/03/24 08:50:02;;;;;;;3.13;0.90;;;9.50;99.90;;;;;;4918933;29;20217;-77
2024/03/24 08:52:29;;;;;;;1.83;0.90;;;9.50;99.90;;;;;;4919486;29;20213;-77
2024/03/24 08:54:56;;;;;;;2.07;0.80;;;9.60;99.90;;;;;;4919261;29;20268;-79
2024/03/24 08:57:24;;;;;;;6.27;1.10;;;9.60;99.90;;;;;;4919372;29;20252;-77
2024/03/24 08:59:54;;;;;;;4.67;0.97;;;9.80;99.90;;;;;;4919024;29;20686;-78
2024/03/24 09:02:21;;;;;;;4.60;1.10;;;10.20;99.90;;;;;;4918905;29;20217;-73
2024/03/24 09:04:49;;;;;;;1.30;0.80;;;10.70;99.90;;;;;;4918951;29;20281;-77
2024/03/24 09:07:16;;;;;;;4.13;1.20;;;11.20;99.90;;;;;;4919248;29;20237;-78
2024/03/24 09:09:43;;;;;;;2.20;0.80;;;11.10;99.90;;;;;;4918990;29;20241;-77
2024/03/24 09:12:12;;;;;;;4.13;1.00;;;11.40;99.90;;;;;;4918967;29;20305;-74
2024/03/24 09:14:37;;;;;;;2.40;1.07;;;11.50;99.90;;;;;;4918468;29;20261;-79
2024/03/24 09:17:04;;;;;;;5.47;0.80;;;11.30;99.90;;;;;;4918686;29;20245;-75
2024/03/24 09:19:30;;;;;;;3.50;1.00;;;11.30;99.90;;;;;;4918618;29;20663;-72
2024/03/24 09:21:57;;;;;;;4.03;0.93;;;11.20;99.90;;;;;;4918648;29;20249;-73
2024/03/24 09:24:23;;;;;;;3.30;1.20;;;10.90;99.90;;;;;;4918829;29;20241;-72
2024/03/24 09:26:51;;;;;;;1.77;0.80;;;10.60;99.90;;;;;;4918320;29;20748;-77
2024/03/24 09:29:18;;;;;;;2.93;1.23;;;10.30;99.90;;;;;;4918541;29;20643;-77
2024/03/24 09:31:45;;;;;;;5.53;0.90;;;9.90;99.90;;;;;;4918461;29;20691;-73
2024/03/24 09:34:11;;;;;;;4.87;0.80;;;9.80;99.90;;;;;;4918374;29;20237;-75
2024/03/24 09:36:37;;;;;;;1.17;0.97;;;9.60;99.90;;;;;;4918452;29;20610;-76
2024/03/24 09:39:03;;;;;;;6.93;1.30;;;9.80;99.90;;;;;;4918345;29;20222;-72
2024/03/24 09:41:31;;;;;;;4.17;1.10;;;9.80;99.90;;;;;;4918200;29;20607;-72
2024/03/24 09:43:58;;;;;;;4.10;1.10;;;10.20;99.90;;;;;;4918188;29;20213;-73
2024/03/24 09:46:26;;;;;;;1.27;0.83;;;10.70;99.90;;;;;;4918259;29;20245;-78
2024/03/24 09:48:54;;;;;;;4.50;0.80;;;11.00;99.90;;;;;;4918283;29;20248;-73
2024/03/24 09:51:24;;;;;;;3.40;1.07;;;11.20;99.90;;;;;;4918126;29;20216;-79
2024/03/24 09:53:50;;;;;;;3.57;0.97;;;11.40;99.90;;;;;;4918093;29;20248;-73
2024/03/24 09:56:21;;;;;;;3.40;0.80;;;11.10;99.90;;;;;;4918412;29;20261;-78
2024/03/24 09:58:48;;;;;;;6.20;1.13;;;10.90;99.90;;;;;;4917809;29;20209;-79
2024/03/24 10:01:15;;;;;;;4.73;0.90;;;10.80;99.90;;;;;;4918134;29;20205;-72
2024/03/24 10:03:44;;;;;;;1.70;0.70;;;10.80;99.90;;;;;;4917775;29;20670;-74
2024/03/24 10:06:13;;;;;;;4.00;1.10;;;10.70;99.90;;;;;;4917862;29;20245;-73
2024/03/24 10:08:39;;;;;;;2.70;0.77;;;11.00;99.90;;;;;;4918243;29;20244;-77
2024/03/24 10:11:25;;;;;;;2.73;0.80;;;11.20;99.90;;;;;;4917950;29;20556;-73
2024/03/24 10:13:53;;;;;;;4.17;0.60;;;11.20;99.90;;;;;;4918185;29;20228;-79
2024/03/24 10:16:18;;;;;;;3.07;1.13;;;11.60;99.90;;;;;;4917579;29;20718;-75
2024/03/24 10:18:48;;;;;;;2.33;0.87;;;12.00;99.90;;;;;;4917661;29;20256;-70
2024/03/24 10:21:14;;;;;;;3.03;0.57;;;12.40;99.90;;;;;;4918011;29;20265;-76
2024/03/24 10:23:41;;;;;;;6.13;1.00;;;12.50;99.90;;;;;;4917465;29;20304;-71
2024/03/24 10:26:07;;;;;;;2.47;0.93;;;12.70;99.90;;;;;;4917586;29;20280;-77
2024/03/24 10:28:34;;;;;;;1.27;0.57;;;12.00;99.90;;;;;;4917847;29;20288;-69
2024/03/24 10:31:04;;;;;;;1.93;0.70;;;11.00;99.90;;;;;;4917516;29;20334;-79
2024/03/24 10:33:33;;;;;;;2.97;0.70;;;10.30;99.90;;;;;;4917849;29;20269;-76
2024/03/24 10:36:00;;;;;;;3.63;0.77;;;10.00;99.90;;;;;;4917754;29;20275;-77
2024/03/24 10:38:28;;;;;;;5.27;1.47;;;10.10;99.90;;;;;;4917286;29;20264;-75
2024/03/24 10:40:57;;;;;;;3.63;0.80;;;10.20;99.90;;;;;;4917186;29;20213;-78
2024/03/24 10:43:25;;;;;;;2.87;0.83;;;10.40;99.90;;;;;;4917340;29;20214;-76
2024/03/24 10:45:52;;;;;;;3.57;0.80;;;10.60;99.90;;;;;;4917384;29;20275;-78
2024/03/24 10:48:24;;;;;;;2.53;0.73;;;10.80;99.90;;;;;;4917612;29;20229;-78
2024/03/24 10:50:53;;;;;;;8.50;0.90;;;10.90;99.90;;;;;;4917059;29;20674;-77
2024/03/24 10:53:24;;;;;;;5.10;1.00;;;10.90;99.90;;;;;;4917194;29;20210;-76
2024/03/24 10:55:52;;;;;;;1.27;0.80;;;11.00;99.90;;;;;;4916875;29;20369;-77
2024/03/24 10:58:22;;;;;;;3.83;1.00;;;11.00;99.90;;;;;;4917237;29;20737;-76
2024/03/24 11:00:49;;;;;;;2.83;1.03;;;11.00;99.90;;;;;;4917298;29;20217;-73
2024/03/24 11:03:16;;;;;;;2.80;1.00;;;11.20;99.90;;;;;;4916967;29;20607;-76
2024/03/24 11:05:43;;;;;;;2.73;0.70;;;11.30;99.90;;;;;;4916693;29;20790;-77
2024/03/24 11:08:13;;;;;;;6.27;0.97;;;11.40;99.90;;;;;;4917247;29;20253;-78
2024/03/24 11:10:42;;;;;;;4.17;0.80;;;11.70;99.90;;;;;;4917381;29;20579;-79
2024/03/24 11:13:12;;;;;;;5.20;0.77;;;11.80;99.90;;;;;;4917195;29;20212;-77
2024/03/24 11:15:40;;;;;;;6.47;1.13;;;11.70;99.90;;;;;;4917056;29;20264;-77
2024/03/24 11:18:18;;;;;;;5.07;0.90;;;11.30;99.90;;;;;;4916949;29;20212;-77
2024/03/24 11:20:44;;;;;;;2.10;0.80;;;11.50;99.90;;;;;;4917627;29;20211;-73
2024/03/24 11:23:17;;;;;;;2.90;1.10;;;11.60;99.90;;;;;;4917171;29;20277;-78
2024/03/24 11:25:48;;;;;;;2.03;0.60;;;11.90;99.90;;;;;;4916932;29;20313;-73
2024/03/24 11:28:40;;;;;;;3.20;0.70;;;12.00;99.90;;;;;;4916683;29;20209;-72
2024/03/24 11:31:13;;;;;;;2.63;0.67;;;12.00;99.90;;;;;;4917032;29;20213;-77
2024/03/24 11:33:40;;;;;;;5.30;0.97;;;11.90;99.90;;;;;;4916621;29;20300;-77
2024/03/24 11:36:17;;;;;;;3.53;0.57;;;11.80;99.90;;;;;;4916391;29;20324;-72
2024/03/24 11:38:45;;;;;;;2.80;0.60;;;11.70;99.90;;;;;;4916624;29;20266;-75
2024/03/24 11:41:15;;;;;;;2.03;0.77;;;11.70;99.90;;;;;;4916896;29;20241;-76
2024/03/24 11:43:43;;;;;;;0.90;0.80;;;11.70;99.90;;;;;;4921002;29;20213;-75
2024/03/24 11:46:10;;;;;;;4.33;0.90;;;11.80;99.90;;;;;;4919547;29;20655;-78
2024/03/24 11:48:38;;;;;;;4.97;1.17;;;11.80;99.90;;;;;;4919750;29;20224;-72
2024/03/24 11:51:05;;;;;;;1.40;0.67;;;11.70;99.90;;;;;;4920100;29;20241;-71
2024/03/24 11:53:32;;;;;;;3.00;0.70;;;11.90;99.90;;;;;;4920367;29;20209;-78
2024/03/24 11:56:00;;;;;;;3.57;0.77;;;11.80;99.90;;;;;;4920330;29;20312;-74
2024/03/24 11:58:28;;;;;;;3.47;0.70;;;11.90;99.90;;;;;;4920330;29;20294;-77
2024/03/24 12:00:54;;;;;;;1.60;0.80;;;12.00;99.90;;;;;;4920073;29;20305;-76
2024/03/24 12:03:21;;;;;;;1.73;0.60;;;12.20;99.90;;;;;;4919991;29;20297;-76
2024/03/24 12:05:50;;;;;;;1.83;0.50;;;12.20;99.90;;;;;;4920013;29;20265;-77
2024/03/24 12:08:18;;;;;;;2.90;0.60;;;12.20;99.90;;;;;;4919842;29;20658;-77
2024/03/24 12:10:44;;;;;;;4.37;0.70;;;12.30;99.90;;;;;;4919877;29;20222;-77
2024/03/24 12:13:11;;;;;;;5.20;0.83;;;12.50;99.90;;;;;;4920264;29;20213;-77
2024/03/24 12:15:38;;;;;;;2.10;0.50;;;12.50;99.90;;;;;;4919812;29;20253;-71
2024/03/24 12:18:09;;;;;;;4.37;0.70;;;12.40;99.90;;;;;;4920145;29;20304;-76
2024/03/24 12:20:36;;;;;;;3.40;0.70;;;12.10;99.90;;;;;;4920206;29;20245;-77
2024/03/24 12:23:04;;;;;;;1.77;0.47;;;12.00;99.90;;;;;;4919983;29;20313;-71
2024/03/24 12:25:30;;;;;;;3.30;1.13;;;12.10;99.90;;;;;;4919873;29;20257;-77
2024/03/24 12:27:57;;;;;;;1.57;0.80;;;12.00;99.90;;;;;;4919581;29;20249;-76
2024/03/24 12:30:24;;;;;;;2.73;0.60;;;12.00;99.90;;;;;;4919643;29;20300;-78
2024/03/24 12:32:56;;;;;;;3.73;0.70;;;12.00;99.90;;;;;;4919455;29;20213;-75
2024/03/24 12:35:22;;;;;;;2.47;0.80;;;12.00;99.90;;;;;;4919717;29;20233;-76
2024/03/24 12:37:51;;;;;;;2.80;0.70;;;12.10;99.90;;;;;;4919235;29;20234;-71
2024/03/24 12:40:19;;;;;;;1.87;0.90;;;11.90;99.90;;;;;;4919797;29;20237;-76
2024/03/24 12:42:45;;;;;;;1.47;0.63;;;11.70;99.90;;;;;;4920454;29;20729;-75
2024/03/24 12:45:15;;;;;;;1.10;0.70;;;11.50;99.90;;;;;;4919531;29;20226;-78
2024/03/24 12:47:42;;;;;;;2.83;0.70;;;11.30;99.90;;;;;;4919746;29;20336;-71
2024/03/24 12:50:28;;;;;;;2.37;0.87;;;11.20;99.90;;;;;;4919671;29;20602;-73
2024/03/24 12:53:03;;;;;;;2.70;0.70;;;11.10;99.90;;;;;;4922803;29;20210;-73
2024/03/24 12:55:34;;;;;;;4.03;0.67;;;10.80;99.90;;;;;;4935013;29;20229;-71
2024/03/24 12:58:02;;;;;;;1.30;0.70;;;10.90;99.90;;;;;;4935816;29;20500;-72
2024/03/24 13:00:30;;;;;;;3.40;0.73;;;10.70;99.90;;;;;;4931166;29;20212;-75
2024/03/24 13:02:59;;;;;;;5.30;1.23;;;10.80;99.90;;;;;;4930701;29;20213;-74
2024/03/24 13:05:27;;;;;;;4.67;1.20;;;10.80;99.90;;;;;;4927753;29;20312;-75
2024/03/24 13:07:54;;;;;;;3.20;0.50;;;10.70;99.90;;;;;;4923384;29;20615;-74
2024/03/24 13:10:24;;;;;;;2.20;0.70;;;10.80;99.90;;;;;;4920284;29;20210;-72
2024/03/24 13:12:51;;;;;;;4.33;0.90;;;10.70;99.90;;;;;;4919321;29;20245;-78
2024/03/24 13:15:18;;;;;;;2.87;0.50;;;10.70;99.90;;;;;;4919563;29;20316;-75
2024/03/24 13:17:45;;;;;;;7.83;1.10;;;10.80;99.90;;;;;;4919445;29;20349;-78
2024/03/24 13:20:15;;;;;;;1.13;0.60;;;10.90;99.90;;;;;;4919289;29;20547;-76
2024/03/24 13:22:44;;;;;;;1.50;0.63;;;10.90;99.90;;;;;;4919062;29;20682;-78
2024/03/24 13:25:13;;;;;;;4.90;0.90;;;10.90;99.90;;;;;;4918842;29;20230;-76
2024/03/24 13:27:45;;;;;;;3.93;1.10;;;10.60;99.90;;;;;;4919495;29;20272;-73
2024/03/24 13:30:12;;;;;;;1.17;0.57;;;10.60;99.90;;;;;;4919116;29;20213;-71
2024/03/24 13:32:38;;;;;;;2.50;0.60;;;10.40;99.90;;;;;;4918849;29;20300;-77
2024/03/24 13:35:06;;;;;;;1.60;0.53;;;10.50;99.90;;;;;;4919390;29;20317;-72
2024/03/24 13:37:39;;;;;;;2.60;0.60;;;10.30;99.90;;;;;;4918550;29;20213;-77
2024/03/24 13:40:27;;;;;;;4.10;0.70;;;10.10;99.90;;;;;;4919078;29;20702;-77
2024/03/24 13:43:06;;;;;;;4.50;0.53;;;10.10;99.90;;;;;;4918407;29;20675;-75
2024/03/24 13:45:55;;;;;;;3.23;0.63;;;10.30;99.90;;;;;;4918212;29;20237;-75
2024/03/24 13:48:23;;;;;;;2.47;0.80;;;10.30;99.90;;;;;;4918370;29;20266;-76
2024/03/24 13:50:51;;;;;;;0.63;0.50;;;10.40;99.90;;;;;;4918693;29;20217;-78
2024/03/24 13:53:20;;;;;;;1.37;0.60;;;10.30;99.90;;;;;;4918352;29;20209;-77
2024/03/24 13:55:48;;;;;;;3.27;0.93;;;10.10;99.90;;;;;;4918937;29;20249;-74
2024/03/24 13:58:14;;;;;;;4.37;0.80;;;10.10;99.90;;;;;;4918749;29;20245;-76
2024/03/24 14:00:41;;;;;;;4.07;0.80;;;10.30;99.90;;;;;;4928728;29;20611;-71
2024/03/24 14:03:07;;;;;;;3.70;0.70;;;10.30;99.90;;;;;;4930656;29;20208;-70
2024/03/24 14:05:34;;;;;;;7.47;0.90;;;10.50;99.90;;;;;;4931298;29;20728;-75
2024/03/24 14:08:00;;;;;;;3.77;0.83;;;10.40;99.90;;;;;;4932188;29;20319;-75
2024/03/24 14:10:26;;;;;;;7.13;0.70;;;10.50;99.90;;;;;;4917858;29;20237;-77
2024/03/24 14:13:05;;;;;;;3.23;0.53;;;10.50;99.90;;;;;;4916899;29;20248;-71
2024/03/24 14:15:42;;;;;;;1.47;0.70;;;10.70;99.90;;;;;;4917752;29;20241;-77
2024/03/24 14:18:18;;;;;;;5.07;0.70;;;10.70;99.90;;;;;;4917951;29;20213;-77
2024/03/24 14:21:00;;;;;;;3.97;0.83;;;10.60;99.90;;;;;;4917689;29;20670;-71
2024/03/24 14:23:39;;;;;;;3.80;0.53;;;10.50;99.90;;;;;;4910414;29;20225;-74
2024/03/24 14:26:06;;;;;;;3.53;0.70;;;10.50;99.90;;;;;;4917593;29;20261;-72
2024/03/24 14:28:33;;;;;;;2.40;0.70;;;10.40;99.90;;;;;;4917342;29;20701;-72
2024/03/24 14:31:00;;;;;;;3.27;0.73;;;10.60;99.90;;;;;;4917214;29;20216;-77
2024/03/24 14:33:26;;;;;;;5.07;1.10;;;10.70;99.90;;;;;;4916744;29;20289;-76
2024/03/24 14:36:02;;;;;;;6.77;1.17;;;10.80;99.90;;;;;;4917374;29;20309;-78
2024/03/24 14:38:42;;;;;;;5.77;0.80;;;10.70;99.90;;;;;;4914399;29;20213;-72
2024/03/24 14:41:22;;;;;;;2.10;0.67;;;10.90;99.90;;;;;;4910712;29;20218;-77
2024/03/24 14:44:03;;;;;;;4.17;0.70;;;11.00;99.90;;;;;;4916398;29;20210;-76
2024/03/24 14:46:43;;;;;;;6.43;0.93;;;11.20;99.90;;;;;;4916366;29;20229;-76
2024/03/24 14:49:10;;;;;;;3.53;0.70;;;11.20;99.90;;;;;;4917089;29;20233;-73
2024/03/24 14:51:37;;;;;;;3.07;0.80;;;11.10;99.90;;;;;;4916370;29;20241;-74
2024/03/24 14:54:03;;;;;;;5.27;1.40;;;11.00;99.90;;;;;;4916008;29;20248;-71
2024/03/24 14:56:34;;;;;;;2.00;0.60;;;11.10;99.90;;;;;;4916216;29;20316;-72
2024/03/24 14:59:04;;;;;;;2.40;0.90;;;11.20;99.90;;;;;;4916608;29;20532;-73
2024/03/24 15:01:31;;;;;;;1.93;0.90;;;11.30;99.90;;;;;;4916314;29;20663;-70
2024/03/24 15:03:57;;;;;;;2.63;0.47;;;11.40;99.90;;;;;;4915627;29;20225;-71
2024/03/24 15:06:24;;;;;;;6.50;0.70;;;11.40;99.90;;;;;;4916446;29;20221;-77
2024/03/24 15:08:50;;;;;;;0.93;0.43;;;11.20;99.90;;;;;;4916596;29;20667;-72
2024/03/24 15:11:18;;;;;;;1.57;0.50;;;11.30;99.90;;;;;;4915611;29;20210;-75
2024/03/24 15:13:44;;;;;;;1.67;0.43;;;11.30;99.90;;;;;;4916165;29;20215;-71
2024/03/24 15:16:12;;;;;;;1.73;0.50;;;11.30;99.90;;;;;;4914578;29;20313;-72
2024/03/24 15:18:38;;;;;;;2.53;0.63;;;11.40;99.90;;;;;;4912605;29;20244;-73
2024/03/24 15:21:05;;;;;;;1.57;0.60;;;11.40;99.90;;;;;;4916478;29;20241;-73
2024/03/24 15:23:31;;;;;;;1.83;0.60;;;11.30;99.90;;;;;;4916723;29;20212;-76
2024/03/24 15:25:58;;;;;;;4.90;0.93;;;11.20;99.90;;;;;;4915289;29;20320;-77
2024/03/24 15:28:25;;;;;;;3.03;0.60;;;11.30;99.90;;;;;;4916706;29;20280;-72
2024/03/24 15:30:52;;;;;;;1.87;0.63;;;11.20;99.90;;;;;;4916535;29;20202;-73
2024/03/24 15:33:19;;;;;;;3.00;0.53;;;10.90;99.90;;;;;;4915708;29;20245;-71
2024/03/24 15:35:47;;;;;;;1.20;0.67;;;10.60;99.90;;;;;;4915337;29;20233;-76
2024/03/24 15:38:13;;;;;;;3.20;0.70;;;10.30;99.90;;;;;;4915059;29;20213;-71
2024/03/24 15:40:40;;;;;;;4.20;1.00;;;9.80;99.90;;;;;;4914872;29;20568;-77
2024/03/24 15:43:09;;;;;;;4.07;1.00;;;9.40;99.90;;;;;;4915631;29;20221;-71
2024/03/24 15:45:36;;;;;;;1.67;0.70;;;9.20;99.90;;;;;;4915423;29;20706;-77
2024/03/24 15:48:02;;;;;;;1.50;0.93;;;8.90;99.90;;;;;;4915596;29;20272;-71
2024/03/24 15:50:30;;;;;;;3.80;0.80;;;8.80;99.90;;;;;;4914992;29;20671;-71
2024/03/24 15:52:57;;;;;;;0.90;0.60;;;8.30;99.90;;;;;;4916181;29;20233;-72
2024/03/24 15:55:27;;;;;;;3.50;1.30;;;8.20;99.90;;;;;;4916418;29;20233;-72
2024/03/24 15:58:06;;;;;;;2.70;1.10;;;8.10;99.90;;;;;;4916029;29;20663;-73
2024/03/24 16:00:41;;;;;;;2.67;0.60;;;8.20;99.90;;;;;;4916442;29;20209;-72
2024/03/24 16:03:07;;;;;;;1.00;0.63;;;8.20;99.90;;;;;;4916850;29;20237;-77
2024/03/24 16:05:35;;;;;;;4.13;0.70;;;8.40;99.90;;;;;;4916439;29;20229;-79
2024/03/24 16:08:02;;;;;;;2.60;0.77;;;8.40;99.90;;;;;;4915976;29;20643;-76
2024/03/24 16:10:52;;;;;;;1.40;0.63;;;8.40;99.90;;;;;;4916140;29;20304;-72
2024/03/24 16:13:24;;;;;;;3.07;1.60;;;8.50;99.90;;;;;;4915698;29;20366;-79
2024/03/24 16:15:51;;;;;;;1.60;0.67;;;8.50;99.90;;;;;;4915627;29;20229;-71
2024/03/24 16:18:17;;;;;;;5.17;2.10;;;8.60;99.90;;;;;;4916424;29;20245;-75
2024/03/24 16:20:58;;;;;;;2.07;0.90;;;8.60;99.90;;;;;;4915752;29;20249;-70
2024/03/24 16:23:26;;;;;;;1.93;1.10;;;8.60;99.90;;;;;;4907553;29;20630;-71
2024/03/24 16:25:53;;;;;;;2.00;1.00;;;8.60;99.90;;;;;;4899644;29;20234;-80
2024/03/24 16:28:21;;;;;;;6.67;1.00;;;8.50;99.90;;;;;;4918354;29;20259;-77
2024/03/24 16:30:48;;;;;;;2.10;0.83;;;8.40;99.90;;;;;;4919622;29;20201;-73
2024/03/24 16:33:15;;;;;;;8.23;1.40;;;8.50;99.90;;;;;;4919940;29;20252;-76
2024/03/24 16:35:42;;;;;;;3.30;1.30;;;8.60;99.90;;;;;;4919056;29;20230;-71
2024/03/24 16:38:10;;;;;;;4.67;1.30;;;8.50;99.90;;;;;;4919432;29;20244;-77
2024/03/24 16:40:37;;;;;;;2.60;1.20;;;8.50;99.90;;;;;;4918889;29;20210;-71
2024/03/24 16:43:03;;;;;;;2.87;1.00;;;8.50;99.90;;;;;;4918253;29;20240;-75
2024/03/24 16:45:30;;;;;;;2.17;1.43;;;8.50;99.90;;;;;;4918760;29;20288;-72
2024/03/24 16:47:56;;;;;;;3.33;0.80;;;8.40;99.90;;;;;;4918512;29;20609;-70
2024/03/24 16:50:23;;;;;;;2.23;1.20;;;8.40;99.90;;;;;;4918960;29;20202;-76
2024/03/24 16:52:49;;;;;;;3.17;1.20;;;8.40;99.90;;;;;;4918787;29;20241;-71
2024/03/24 16:55:17;;;;;;;4.60;1.00;;;8.40;99.90;;;;;;4919130;29;20272;-71
2024/03/24 16:57:43;;;;;;;1.57;1.00;;;8.30;99.90;;;;;;4913374;29;20229;-72
2024/03/24 17:00:11;;;;;;;4.33;1.00;;;8.30;99.90;;;;;;4918507;29;20590;-74
2024/03/24 17:02:37;;;;;;;3.20;1.27;;;8.20;99.90;;;;;;4918240;29;20244;-78
2024/03/24 17:05:04;;;;;;;1.93;0.90;;;8.20;99.90;;;;;;4918123;29;20583;-76
2024/03/24 17:07:31;;;;;;;3.23;0.97;;;8.10;99.90;;;;;;4917963;29;20257;-79
2024/03/24 17:09:58;;;;;;;1.00;0.70;;;8.10;99.90;;;;;;4917024;29;20233;-71
2024/03/24 17:12:25;;;;;;;3.73;1.47;;;8.10;99.90;;;;;;4918497;29;20252;-76
2024/03/24 17:14:52;;;;;;;3.20;1.00;;;8.10;99.90;;;;;;4918310;29;20237;-75
2024/03/24 17:17:18;;;;;;;6.77;0.87;;;8.10;99.90;;;;;;4918632;29;20641;-79
2024/03/24 17:19:45;;;;;;;2.30;0.93;;;8.00;99.90;;;;;;4918091;29;20280;-70
2024/03/24 17:22:12;;;;;;;2.73;0.87;;;8.00;99.90;;;;;;4918378;29;20244;-73
2024/03/24 17:24:39;;;;;;;1.57;0.80;;;8.00;99.90;;;;;;4917584;29;20714;-70
2024/03/24 17:27:05;;;;;;;1.57;0.80;;;8.10;99.90;;;;;;4901049;29;20639;-71
2024/03/24 17:29:33;;;;;;;1.43;0.80;;;8.20;99.90;;;;;;4918252;29;20213;-71
2024/03/24 17:31:59;;;;;;;1.87;0.97;;;8.10;99.90;;;;;;4918001;29;20570;-70
2024/03/24 17:34:26;;;;;;;2.50;0.87;;;8.10;99.90;;;;;;4917921;29;20201;-71
2024/03/24 17:36:52;;;;;;;3.03;1.23;;;8.10;99.90;;;;;;4918148;29;20237;-71
2024/03/24 17:39:19;;;;;;;4.00;1.00;;;8.10;99.90;;;;;;4912545;29;20239;-76
2024/03/24 17:41:45;;;;;;;1.53;0.90;;;8.10;99.90;;;;;;4918218;29;20244;-71
2024/03/24 17:44:12;;;;;;;2.53;0.87;;;8.10;99.90;;;;;;4917671;29;20654;-77
2024/03/24 17:46:39;;;;;;;2.97;0.70;;;8.20;99.90;;;;;;4917767;29;20237;-75
2024/03/24 17:49:06;;;;;;;2.23;0.70;;;8.20;99.90;;;;;;4917297;29;20245;-75
2024/03/24 17:51:32;;;;;;;2.83;0.87;;;8.20;99.90;;;;;;4917293;29;20671;-72
2024/03/24 17:53:59;;;;;;;6.27;1.60;;;8.30;99.90;;;;;;4918024;29;20245;-77
2024/03/24 17:56:25;;;;;;;3.60;1.10;;;8.20;99.90;;;;;;4917273;29;20709;-71
2024/03/24 17:58:52;;;;;;;1.97;0.93;;;8.20;99.90;;;;;;4917913;29;20216;-74
2024/03/24 18:01:19;;;;;;;3.13;1.00;;;8.20;99.90;;;;;;4905856;29;20209;-75
2024/03/24 18:03:47;;;;;;;4.73;1.53;;;8.10;99.90;;;;;;4909590;29;20241;-71
2024/03/24 18:06:13;;;;;;;3.63;1.53;;;8.10;99.90;;;;;;4917128;29;20228;-72
2024/03/24 18:11:24;;;;;;;4.03;1.13;;;8.20;99.90;;;;;;4917198;29;20216;-72
2024/03/24 18:13:51;;;;;;;3.80;1.17;;;8.50;99.90;;;;;;4917284;29;20237;-78
2024/03/24 18:16:18;;;;;;;2.27;1.03;;;8.60;99.90;;;;;;4917300;29;20320;-75
2024/03/24 18:18:45;;;;;;;2.40;1.00;;;8.50;99.90;;;;;;4917130;29;20248;-71
2024/03/24 18:21:13;;;;;;;5.83;1.43;;;8.40;99.90;;;;;;4916493;29;20245;-75
2024/03/24 18:23:41;;;;;;;2.03;0.93;;;8.40;99.90;;;;;;4917159;29;20256;-74
2024/03/24 18:26:08;;;;;;;4.13;1.13;;;8.40;99.90;;;;;;4916965;29;20260;-73
2024/03/24 18:28:35;;;;;;;2.53;1.10;;;8.40;99.90;;;;;;4916783;29;20241;-75
2024/03/24 18:31:01;;;;;;;1.43;0.70;;;8.40;99.90;;;;;;4916507;29;20244;-72
2024/03/24 18:33:28;;;;;;;2.23;1.10;;;8.20;99.90;;;;;;4917138;29;20229;-72
2024/03/24 18:35:55;;;;;;;2.73;0.83;;;8.10;99.90;;;;;;4917696;29;20690;-76
2024/03/24 18:38:23;;;;;;;4.43;1.20;;;8.10;99.90;;;;;;4917297;29;20221;-73
2024/03/24 18:40:49;;;;;;;2.07;0.90;;;8.00;99.90;;;;;;4916569;29;20293;-79
2024/03/24 18:43:16;;;;;;;1.90;0.73;;;7.90;99.90;;;;;;4918459;29;20247;-77
2024/03/24 18:45:42;;;;;;;1.67;0.60;;;7.90;99.90;;;;;;4930186;29;20674;-74
2024/03/24 18:48:09;;;;;;;1.77;0.83;;;7.90;99.90;;;;;;4934625;29;20229;-74
2024/03/24 18:50:34;;;;;;;1.40;0.80;;;7.90;99.90;;;;;;4933370;29;20433;-74
2024/03/24 18:53:04;;;;;;;1.47;0.70;;;7.90;99.90;;;;;;4930004;29;20214;-77
2024/03/24 18:55:31;;;;;;;1.90;0.77;;;7.90;99.90;;;;;;4922943;29;20316;-78
2024/03/24 18:57:58;;;;;;;3.53;0.90;;;7.80;99.90;;;;;;4922140;29;20205;-74
2024/03/24 19:00:24;;;;;;;1.83;0.90;;;7.70;99.90;;;;;;4920301;29;20241;-72
2024/03/24 19:02:51;;;;;;;1.90;0.93;;;7.70;99.90;;;;;;4919726;29;20246;-77
2024/03/24 19:05:17;;;;;;;2.00;0.90;;;7.70;99.90;;;;;;4917351;29;20229;-72
2024/03/24 19:07:44;;;;;;;4.17;1.07;;;7.60;99.90;;;;;;4917626;29;20770;-70
2024/03/24 19:10:13;;;;;;;3.00;1.07;;;7.50;99.90;;;;;;4917735;29;20715;-78
2024/03/24 19:12:41;;;;;;;4.83;1.30;;;7.50;99.90;;;;;;4924772;29;20216;-75
2024/03/24 19:15:13;;;;;;;4.33;1.37;;;7.50;99.90;;;;;;4936838;29;20224;-71
2024/03/24 19:17:40;;;;;;;2.77;1.27;;;7.30;99.90;;;;;;4917749;29;20216;-73
2024/03/24 19:20:11;;;;;;;1.50;1.00;;;7.30;99.90;;;;;;4917020;29;20598;-74
2024/03/24 19:22:39;;;;;;;1.60;0.90;;;7.30;99.90;;;;;;4917702;29;20234;-73
2024/03/24 19:25:06;;;;;;;2.30;1.10;;;7.40;99.90;;;;;;4912045;29;20317;-71
2024/03/24 19:27:35;;;;;;;2.33;1.40;;;7.40;99.90;;;;;;4901603;29;20210;-73
2024/03/24 19:30:02;;;;;;;3.00;1.00;;;7.30;99.90;;;;;;4911827;29;20209;-72
2024/03/24 19:32:31;;;;;;;4.10;1.20;;;7.30;99.90;;;;;;4916279;29;20206;-74
2024/03/24 19:34:58;;;;;;;2.13;1.10;;;7.30;99.90;;;;;;4918726;29;20228;-74
2024/03/24 19:37:26;;;;;;;2.50;1.60;;;7.30;99.90;;;;;;4916301;29;20265;-71
2024/03/24 19:39:52;;;;;;;4.00;1.40;;;7.40;99.90;;;;;;4915655;29;20216;-74
2024/03/24 19:42:21;;;;;;;2.33;1.20;;;7.40;99.90;;;;;;4915584;29;20671;-70
2024/03/24 19:44:47;;;;;;;2.70;1.50;;;7.40;99.90;;;;;;4915862;29;20236;-71
2024/03/24 19:47:16;;;;;;;3.73;1.10;;;7.40;99.90;;;;;;4915919;29;20205;-73
2024/03/24 19:49:41;;;;;;;2.60;1.30;;;7.40;99.90;;;;;;4915467;29;20868;-71
2024/03/24 19:52:08;;;;;;;3.17;1.50;;;7.40;99.90;;;;;;4915620;29;20269;-71
2024/03/24 19:54:34;;;;;;;2.57;1.40;;;7.40;99.90;;;;;;4915175;29;20345;-74
2024/03/24 19:57:01;;;;;;;5.90;1.63;;;7.40;99.90;;;;;;4908907;29;20607;-74
2024/03/24 19:59:27;;;;;;;7.00;1.90;;;7.30;99.90;;;;;;4914869;29;20662;-72
2024/03/24 20:01:54;;;;;;;6.23;2.67;;;7.30;99.90;;;;;;4915609;29;20213;-69
2024/03/24 20:04:22;;;;;;;2.43;1.33;;;7.20;99.90;;;;;;4919735;29;20616;-72
2024/03/24 20:06:50;;;;;;;3.30;1.40;;;7.20;99.90;;;;;;4918376;29;20217;-70
2024/03/24 20:09:16;;;;;;;8.77;1.80;;;7.20;99.90;;;;;;4918675;29;20244;-71
2024/03/24 20:11:43;;;;;;;7.73;2.03;;;7.20;99.90;;;;;;4919123;29;20296;-70
2024/03/24 20:14:10;;;;;;;6.07;1.50;;;7.20;99.90;;;;;;4919223;29;20304;-70
2024/03/24 20:16:37;;;;;;;3.37;1.40;;;7.20;99.90;;;;;;4918470;29;20678;-70
2024/03/24 20:19:03;;;;;;;3.07;1.47;;;7.20;99.90;;;;;;4919260;29;20245;-70
2024/03/24 20:21:31;;;;;;;2.43;1.00;;;7.10;99.90;;;;;;4919181;29;20237;-70
2024/03/24 20:23:57;;;;;;;2.20;1.00;;;7.10;99.90;;;;;;4918992;29;20619;-73
2024/03/24 20:26:24;;;;;;;2.10;1.10;;;7.10;99.90;;;;;;4914992;29;20273;-72
2024/03/24 20:28:52;;;;;;;5.80;1.40;;;7.10;99.90;;;;;;4917004;29;20245;-70
2024/03/24 20:31:20;;;;;;;6.13;1.47;;;7.10;99.90;;;;;;4918967;29;20209;-73
2024/03/24 20:33:46;;;;;;;4.50;1.40;;;7.10;99.90;;;;;;4919292;29;20213;-70
2024/03/24 20:36:12;;;;;;;2.57;1.27;;;7.10;99.90;;;;;;4919221;29;20744;-70
2024/03/24 20:38:41;;;;;;;4.33;1.70;;;7.10;99.90;;;;;;4918705;29;20253;-70
2024/03/24 20:41:07;;;;;;;3.10;1.20;;;7.00;99.90;;;;;;4918425;29;20730;-70
2024/03/24 20:43:35;;;;;;;7.33;1.93;;;7.10;99.90;;;;;;4919372;29;20209;-70
2024/03/24 20:46:01;;;;;;;4.43;1.30;;;7.10;99.90;;;;;;4918300;29;20279;-72
2024/03/24 20:48:28;;;;;;;3.67;1.37;;;7.00;99.90;;;;;;4918948;29;20670;-70
2024/03/24 20:50:54;;;;;;;3.90;1.97;;;7.00;99.90;;;;;;4918497;29;20241;-70
2024/03/24 20:53:20;;;;;;;2.63;1.93;;;7.00;99.90;;;;;;4918674;29;20635;-71
2024/03/24 20:55:48;;;;;;;6.30;1.90;;;6.90;99.90;;;;;;4918081;29;20344;-70
2024/03/24 20:58:15;;;;;;;4.10;1.43;;;6.90;99.90;;;;;;4914379;29;20220;-73
2024/03/24 21:00:42;;;;;;;4.77;1.60;;;6.90;99.90;;;;;;4916403;29;20266;-70
2024/03/24 21:03:11;;;;;;;3.50;1.50;;;6.80;99.90;;;;;;4918525;29;20261;-73
2024/03/24 21:05:37;;;;;;;4.10;1.60;;;6.70;99.90;;;;;;4918791;29;20230;-70
2024/03/24 21:08:05;;;;;;;4.07;1.70;;;6.70;99.90;;;;;;4918379;29;20319;-69
2024/03/24 21:10:31;;;;;;;2.93;1.50;;;6.60;99.90;;;;;;4917592;29;20651;-70
2024/03/24 21:13:00;;;;;;;4.80;1.97;;;6.60;99.90;;;;;;4917600;29;20205;-70
2024/03/24 21:15:26;;;;;;;2.60;1.40;;;6.50;99.90;;;;;;4916922;29;20225;-70
2024/03/24 21:17:53;;;;;;;2.47;1.60;;;6.50;99.90;;;;;;4918115;29;20587;-70
2024/03/24 21:20:19;;;;;;;3.00;1.50;;;6.40;99.90;;;;;;4918173;29;20675;-70
2024/03/24 21:22:46;;;;;;;4.43;1.30;;;6.40;99.90;;;;;;4918447;29;20252;-71
2024/03/24 21:25:12;;;;;;;4.50;1.87;;;6.30;99.90;;;;;;4917589;29;20233;-71
2024/03/24 21:27:40;;;;;;;7.40;2.20;;;6.20;99.90;;;;;;4918080;29;20214;-74
2024/03/24 21:30:09;;;;;;;3.77;1.77;;;6.20;99.90;;;;;;4917760;29;20248;-74
2024/03/24 21:32:36;;;;;;;10.17;2.23;;;6.10;99.90;;;;;;4918022;29;20210;-73
2024/03/24 21:35:01;;;;;;;6.03;2.00;;;6.10;99.90;;;;;;4917998;29;20273;-71
2024/03/24 21:42:06;;;;;;;4.80;2.23;;;6.00;99.90;;;;;;4917300;29;20256;-70